Terminal Aerodrome Forecast
Issued by NWS Shreveport, LA

Home | Current Version | Previous Version | Text Only | Print | Product List | Glossary On
Versions: 1 2 3 4 5 6 7 8 9 10 11 12 13 14 15
057
FTUS44 KSHV 251132
TAFELD
TAF
KELD 251132Z 2512/2612 00000KT 3SM BR SCT250
      TEMPO 2512/2514 P6SM NSW
     FM251400 VRB03KT P6SM SCT025 SCT250
     FM251700 13005KT P6SM SCT040 SCT250
     FM260000 VRB03KT P6SM SCT050 SCT250
     FM260700 VRB03KT 5SM BR SCT050 SCT100 BKN250=

USA.gov is the U.S. government's official web portal to all federal, state and local government web resources and services.